sensor_id;sensor_type;location;lat;lon;timestamp;P1;durP1;ratioP1;P2;durP2;ratioP2
49826;SDS011;35715;51.570;6.036;2023-11-18T00:00:18;35.20;;;22.67;;
49826;SDS011;35715;51.570;6.036;2023-11-18T00:02:44;32.17;;;21.73;;
49826;SDS011;35715;51.570;6.036;2023-11-18T00:05:10;30.55;;;22.70;;
49826;SDS011;35715;51.570;6.036;2023-11-18T00:07:36;33.22;;;20.90;;
49826;SDS011;35715;51.570;6.036;2023-11-18T00:10:01;33.47;;;21.95;;
49826;SDS011;35715;51.570;6.036;2023-11-18T00:12:27;39.10;;;25.05;;
49826;SDS011;35715;51.570;6.036;2023-11-18T00:14:52;32.45;;;21.05;;
49826;SDS011;35715;51.570;6.036;2023-11-18T00:17:17;39.00;;;23.10;;
49826;SDS011;35715;51.570;6.036;2023-11-18T00:19:45;35.30;;;22.10;;
49826;SDS011;35715;51.570;6.036;2023-11-18T00:22:13;36.05;;;25.20;;
49826;SDS011;35715;51.570;6.036;2023-11-18T00:24:38;32.95;;;23.33;;
49826;SDS011;35715;51.570;6.036;2023-11-18T00:27:04;32.30;;;23.65;;
49826;SDS011;35715;51.570;6.036;2023-11-18T00:29:33;38.67;;;22.52;;
49826;SDS011;35715;51.570;6.036;2023-11-18T00:32:00;30.02;;;21.88;;
49826;SDS011;35715;51.570;6.036;2023-11-18T00:34:32;30.83;;;21.48;;
49826;SDS011;35715;51.570;6.036;2023-11-18T00:36:58;30.73;;;22.33;;
49826;SDS011;35715;51.570;6.036;2023-11-18T00:39:23;31.08;;;21.48;;
49826;SDS011;35715;51.570;6.036;2023-11-18T00:41:49;34.10;;;22.90;;
49826;SDS011;35715;51.570;6.036;2023-11-18T00:44:14;40.10;;;24.60;;
49826;SDS011;35715;51.570;6.036;2023-11-18T00:46:40;32.83;;;23.67;;
49826;SDS011;35715;51.570;6.036;2023-11-18T00:49:05;32.13;;;21.48;;
49826;SDS011;35715;51.570;6.036;2023-11-18T00:51:31;33.83;;;22.17;;
49826;SDS011;35715;51.570;6.036;2023-11-18T00:53:56;32.13;;;21.75;;
49826;SDS011;35715;51.570;6.036;2023-11-18T00:56:23;34.25;;;24.63;;
49826;SDS011;35715;51.570;6.036;2023-11-18T00:58:48;34.30;;;23.52;;
49826;SDS011;35715;51.570;6.036;2023-11-18T01:01:14;35.92;;;22.65;;
49826;SDS011;35715;51.570;6.036;2023-11-18T01:03:43;39.47;;;23.35;;
49826;SDS011;35715;51.570;6.036;2023-11-18T01:06:09;35.50;;;23.33;;
49826;SDS011;35715;51.570;6.036;2023-11-18T01:08:34;37.40;;;23.33;;
49826;SDS011;35715;51.570;6.036;2023-11-18T01:11:00;37.08;;;23.88;;
49826;SDS011;35715;51.570;6.036;2023-11-18T01:13:25;37.60;;;25.33;;
49826;SDS011;35715;51.570;6.036;2023-11-18T01:15:51;48.03;;;28.20;;
49826;SDS011;35715;51.570;6.036;2023-11-18T01:18:17;45.42;;;27.92;;
49826;SDS011;35715;51.570;6.036;2023-11-18T01:20:42;37.92;;;27.42;;
49826;SDS011;35715;51.570;6.036;2023-11-18T01:23:08;40.78;;;28.40;;
49826;SDS011;35715;51.570;6.036;2023-11-18T01:25:33;40.40;;;27.25;;
49826;SDS011;35715;51.570;6.036;2023-11-18T01:27:59;37.15;;;27.00;;
49826;SDS011;35715;51.570;6.036;2023-11-18T01:30:25;40.50;;;28.02;;
49826;SDS011;35715;51.570;6.036;2023-11-18T01:32:51;37.63;;;26.60;;
49826;SDS011;35715;51.570;6.036;2023-11-18T01:35:17;37.20;;;24.45;;
49826;SDS011;35715;51.570;6.036;2023-11-18T01:37:43;35.10;;;23.70;;
49826;SDS011;35715;51.570;6.036;2023-11-18T01:40:09;33.45;;;24.40;;
49826;SDS011;35715;51.570;6.036;2023-11-18T01:42:38;30.67;;;21.33;;
49826;SDS011;35715;51.570;6.036;2023-11-18T01:45:03;36.35;;;24.42;;
49826;SDS011;35715;51.570;6.036;2023-11-18T01:47:31;37.53;;;23.65;;
49826;SDS011;35715;51.570;6.036;2023-11-18T01:49:59;36.65;;;23.77;;
49826;SDS011;35715;51.570;6.036;2023-11-18T01:52:26;36.55;;;23.33;;
49826;SDS011;35715;51.570;6.036;2023-11-18T01:54:54;34.03;;;22.75;;
49826;SDS011;35715;51.570;6.036;2023-11-18T01:57:21;36.70;;;24.50;;
49826;SDS011;35715;51.570;6.036;2023-11-18T01:59:46;42.00;;;26.25;;
49826;SDS011;35715;51.570;6.036;2023-11-18T02:02:12;34.47;;;23.42;;
49826;SDS011;35715;51.570;6.036;2023-11-18T02:04:38;37.83;;;25.98;;
49826;SDS011;35715;51.570;6.036;2023-11-18T02:07:04;37.65;;;23.25;;
49826;SDS011;35715;51.570;6.036;2023-11-18T02:09:34;32.47;;;22.52;;
49826;SDS011;35715;51.570;6.036;2023-11-18T02:14:29;32.00;;;22.13;;
49826;SDS011;35715;51.570;6.036;2023-11-18T02:16:59;36.67;;;24.77;;
49826;SDS011;35715;51.570;6.036;2023-11-18T02:19:28;34.22;;;24.60;;
49826;SDS011;35715;51.570;6.036;2023-11-18T02:21:55;33.00;;;23.63;;
49826;SDS011;35715;51.570;6.036;2023-11-18T02:24:25;32.35;;;22.58;;
49826;SDS011;35715;51.570;6.036;2023-11-18T02:27:01;35.67;;;22.73;;
49826;SDS011;35715;51.570;6.036;2023-11-18T02:29:28;30.75;;;21.92;;
49826;SDS011;35715;51.570;6.036;2023-11-18T02:32:03;36.45;;;25.02;;
49826;SDS011;35715;51.570;6.036;2023-11-18T02:34:36;33.65;;;23.00;;
49826;SDS011;35715;51.570;6.036;2023-11-18T02:37:07;38.13;;;22.90;;
49826;SDS011;35715;51.570;6.036;2023-11-18T02:39:45;29.55;;;23.42;;
49826;SDS011;35715;51.570;6.036;2023-11-18T02:42:16;31.67;;;22.23;;
49826;SDS011;35715;51.570;6.036;2023-11-18T02:44:41;35.13;;;22.27;;
49826;SDS011;35715;51.570;6.036;2023-11-18T02:47:08;32.88;;;22.88;;
49826;SDS011;35715;51.570;6.036;2023-11-18T02:49:34;33.70;;;23.15;;
49826;SDS011;35715;51.570;6.036;2023-11-18T02:52:04;30.67;;;20.92;;
49826;SDS011;35715;51.570;6.036;2023-11-18T02:54:30;32.08;;;22.13;;
49826;SDS011;35715;51.570;6.036;2023-11-18T02:56:55;34.55;;;22.25;;
49826;SDS011;35715;51.570;6.036;2023-11-18T02:59:21;34.05;;;21.17;;
49826;SDS011;35715;51.570;6.036;2023-11-18T03:01:57;43.45;;;25.67;;
49826;SDS011;35715;51.570;6.036;2023-11-18T03:04:23;29.13;;;21.83;;
49826;SDS011;35715;51.570;6.036;2023-11-18T03:06:49;31.35;;;22.33;;
49826;SDS011;35715;51.570;6.036;2023-11-18T03:09:15;30.73;;;22.13;;
49826;SDS011;35715;51.570;6.036;2023-11-18T03:11:40;35.28;;;22.92;;
49826;SDS011;35715;51.570;6.036;2023-11-18T03:14:06;35.50;;;25.50;;
49826;SDS011;35715;51.570;6.036;2023-11-18T03:16:34;28.58;;;21.17;;
49826;SDS011;35715;51.570;6.036;2023-11-18T03:19:00;31.50;;;21.83;;
49826;SDS011;35715;51.570;6.036;2023-11-18T03:21:26;37.03;;;23.17;;
49826;SDS011;35715;51.570;6.036;2023-11-18T03:23:51;35.35;;;23.67;;
49826;SDS011;35715;51.570;6.036;2023-11-18T03:26:21;40.40;;;22.30;;
49826;SDS011;35715;51.570;6.036;2023-11-18T03:28:46;34.83;;;23.23;;
49826;SDS011;35715;51.570;6.036;2023-11-18T03:31:12;36.42;;;24.00;;
49826;SDS011;35715;51.570;6.036;2023-11-18T03:33:38;39.03;;;24.13;;
49826;SDS011;35715;51.570;6.036;2023-11-18T03:36:03;35.25;;;23.65;;
49826;SDS011;35715;51.570;6.036;2023-11-18T03:38:29;47.25;;;25.38;;
49826;SDS011;35715;51.570;6.036;2023-11-18T03:40:54;32.45;;;24.17;;
49826;SDS011;35715;51.570;6.036;2023-11-18T03:43:23;33.03;;;23.90;;
49826;SDS011;35715;51.570;6.036;2023-11-18T03:45:48;37.92;;;26.20;;
49826;SDS011;35715;51.570;6.036;2023-11-18T03:48:13;29.52;;;22.63;;
49826;SDS011;35715;51.570;6.036;2023-11-18T03:50:39;37.95;;;24.08;;
49826;SDS011;35715;51.570;6.036;2023-11-18T03:53:05;33.78;;;22.40;;
49826;SDS011;35715;51.570;6.036;2023-11-18T03:55:31;36.10;;;25.05;;
49826;SDS011;35715;51.570;6.036;2023-11-18T03:57:56;37.05;;;23.45;;
49826;SDS011;35715;51.570;6.036;2023-11-18T04:00:22;33.60;;;23.80;;
49826;SDS011;35715;51.570;6.036;2023-11-18T04:02:54;34.97;;;23.60;;
49826;SDS011;35715;51.570;6.036;2023-11-18T04:05:23;29.95;;;21.92;;
49826;SDS011;35715;51.570;6.036;2023-11-18T04:07:48;37.00;;;25.30;;
49826;SDS011;35715;51.570;6.036;2023-11-18T04:10:13;43.78;;;25.20;;
49826;SDS011;35715;51.570;6.036;2023-11-18T04:12:40;36.67;;;24.33;;
49826;SDS011;35715;51.570;6.036;2023-11-18T04:15:05;34.90;;;24.40;;
49826;SDS011;35715;51.570;6.036;2023-11-18T04:17:32;31.52;;;23.60;;
49826;SDS011;35715;51.570;6.036;2023-11-18T04:19:58;36.63;;;23.80;;
49826;SDS011;35715;51.570;6.036;2023-11-18T04:22:24;33.17;;;24.73;;
49826;SDS011;35715;51.570;6.036;2023-11-18T04:24:49;36.10;;;23.63;;
49826;SDS011;35715;51.570;6.036;2023-11-18T04:27:15;40.50;;;23.05;;
49826;SDS011;35715;51.570;6.036;2023-11-18T04:29:40;37.72;;;24.42;;
49826;SDS011;35715;51.570;6.036;2023-11-18T04:32:06;34.15;;;21.40;;
49826;SDS011;35715;51.570;6.036;2023-11-18T04:34:37;35.55;;;23.42;;
49826;SDS011;35715;51.570;6.036;2023-11-18T04:37:05;36.95;;;22.17;;
49826;SDS011;35715;51.570;6.036;2023-11-18T04:39:33;33.70;;;21.90;;
49826;SDS011;35715;51.570;6.036;2023-11-18T04:41:59;32.90;;;20.95;;
49826;SDS011;35715;51.570;6.036;2023-11-18T04:44:26;37.88;;;25.08;;
49826;SDS011;35715;51.570;6.036;2023-11-18T04:46:52;32.58;;;23.30;;
49826;SDS011;35715;51.570;6.036;2023-11-18T04:49:17;33.35;;;21.45;;
49826;SDS011;35715;51.570;6.036;2023-11-18T04:51:42;32.78;;;23.42;;
49826;SDS011;35715;51.570;6.036;2023-11-18T04:54:08;26.75;;;21.85;;
49826;SDS011;35715;51.570;6.036;2023-11-18T04:56:34;36.30;;;23.52;;
49826;SDS011;35715;51.570;6.036;2023-11-18T04:59:02;31.95;;;19.20;;
49826;SDS011;35715;51.570;6.036;2023-11-18T05:01:30;29.50;;;20.75;;
49826;SDS011;35715;51.570;6.036;2023-11-18T05:03:56;35.35;;;20.60;;
49826;SDS011;35715;51.570;6.036;2023-11-18T05:06:21;31.75;;;21.45;;
49826;SDS011;35715;51.570;6.036;2023-11-18T05:08:47;33.83;;;21.27;;
49826;SDS011;35715;51.570;6.036;2023-11-18T05:11:12;28.73;;;19.45;;
49826;SDS011;35715;51.570;6.036;2023-11-18T05:13:38;31.92;;;21.85;;
49826;SDS011;35715;51.570;6.036;2023-11-18T05:16:05;26.98;;;19.33;;
49826;SDS011;35715;51.570;6.036;2023-11-18T05:18:31;27.90;;;19.13;;
49826;SDS011;35715;51.570;6.036;2023-11-18T05:21:00;30.15;;;19.65;;
49826;SDS011;35715;51.570;6.036;2023-11-18T05:23:26;30.65;;;20.00;;
49826;SDS011;35715;51.570;6.036;2023-11-18T05:25:51;29.23;;;19.70;;
49826;SDS011;35715;51.570;6.036;2023-11-18T05:28:17;28.52;;;18.80;;
49826;SDS011;35715;51.570;6.036;2023-11-18T05:30:42;22.33;;;16.98;;
49826;SDS011;35715;51.570;6.036;2023-11-18T05:33:10;24.40;;;19.38;;
49826;SDS011;35715;51.570;6.036;2023-11-18T05:35:42;29.80;;;19.70;;
49826;SDS011;35715;51.570;6.036;2023-11-18T05:38:13;24.55;;;18.15;;
49826;SDS011;35715;51.570;6.036;2023-11-18T05:40:41;23.48;;;18.60;;
49826;SDS011;35715;51.570;6.036;2023-11-18T05:43:09;31.70;;;21.48;;
49826;SDS011;35715;51.570;6.036;2023-11-18T05:45:41;31.02;;;18.30;;
49826;SDS011;35715;51.570;6.036;2023-11-18T05:48:37;28.05;;;18.85;;
49826;SDS011;35715;51.570;6.036;2023-11-18T05:51:03;24.98;;;16.83;;
49826;SDS011;35715;51.570;6.036;2023-11-18T05:53:28;26.13;;;17.13;;
49826;SDS011;35715;51.570;6.036;2023-11-18T05:55:54;31.67;;;18.77;;
49826;SDS011;35715;51.570;6.036;2023-11-18T05:58:19;29.85;;;20.05;;
49826;SDS011;35715;51.570;6.036;2023-11-18T06:00:46;23.83;;;17.45;;
49826;SDS011;35715;51.570;6.036;2023-11-18T06:03:12;27.23;;;18.27;;
49826;SDS011;35715;51.570;6.036;2023-11-18T06:05:37;25.10;;;15.38;;
49826;SDS011;35715;51.570;6.036;2023-11-18T06:08:03;28.73;;;16.80;;
49826;SDS011;35715;51.570;6.036;2023-11-18T06:10:29;25.35;;;17.83;;
49826;SDS011;35715;51.570;6.036;2023-11-18T06:12:56;24.13;;;18.02;;
49826;SDS011;35715;51.570;6.036;2023-11-18T06:15:23;20.80;;;16.20;;
49826;SDS011;35715;51.570;6.036;2023-11-18T06:17:48;23.23;;;16.33;;
49826;SDS011;35715;51.570;6.036;2023-11-18T06:20:13;22.48;;;16.33;;
49826;SDS011;35715;51.570;6.036;2023-11-18T06:22:39;27.13;;;17.88;;
49826;SDS011;35715;51.570;6.036;2023-11-18T06:25:05;26.38;;;18.35;;
49826;SDS011;35715;51.570;6.036;2023-11-18T06:27:32;23.17;;;16.55;;
49826;SDS011;35715;51.570;6.036;2023-11-18T06:30:00;27.83;;;15.65;;
49826;SDS011;35715;51.570;6.036;2023-11-18T06:32:26;23.98;;;15.43;;
49826;SDS011;35715;51.570;6.036;2023-11-18T06:34:52;22.98;;;16.02;;
49826;SDS011;35715;51.570;6.036;2023-11-18T06:37:18;23.20;;;16.10;;
49826;SDS011;35715;51.570;6.036;2023-11-18T06:39:44;23.20;;;16.90;;
49826;SDS011;35715;51.570;6.036;2023-11-18T06:42:12;20.48;;;16.05;;
49826;SDS011;35715;51.570;6.036;2023-11-18T06:44:39;26.65;;;16.30;;
49826;SDS011;35715;51.570;6.036;2023-11-18T06:47:04;30.00;;;19.85;;
49826;SDS011;35715;51.570;6.036;2023-11-18T06:49:31;22.35;;;17.33;;
49826;SDS011;35715;51.570;6.036;2023-11-18T06:51:59;22.42;;;16.15;;
49826;SDS011;35715;51.570;6.036;2023-11-18T06:54:29;24.35;;;15.85;;
49826;SDS011;35715;51.570;6.036;2023-11-18T06:56:55;23.38;;;17.30;;
49826;SDS011;35715;51.570;6.036;2023-11-18T06:59:21;25.70;;;17.65;;
49826;SDS011;35715;51.570;6.036;2023-11-18T07:01:46;25.98;;;18.15;;
49826;SDS011;35715;51.570;6.036;2023-11-18T07:04:11;24.08;;;16.65;;
49826;SDS011;35715;51.570;6.036;2023-11-18T07:06:37;40.08;;;18.85;;
49826;SDS011;35715;51.570;6.036;2023-11-18T07:09:03;23.00;;;17.65;;
49826;SDS011;35715;51.570;6.036;2023-11-18T07:11:34;25.80;;;16.42;;
49826;SDS011;35715;51.570;6.036;2023-11-18T07:14:00;28.25;;;18.85;;
49826;SDS011;35715;51.570;6.036;2023-11-18T07:16:25;28.48;;;17.98;;
49826;SDS011;35715;51.570;6.036;2023-11-18T07:18:50;29.10;;;17.92;;
49826;SDS011;35715;51.570;6.036;2023-11-18T07:21:16;26.25;;;18.77;;
49826;SDS011;35715;51.570;6.036;2023-11-18T07:23:42;27.38;;;17.48;;
49826;SDS011;35715;51.570;6.036;2023-11-18T07:26:08;35.72;;;19.08;;
49826;SDS011;35715;51.570;6.036;2023-11-18T07:28:35;32.67;;;19.83;;
49826;SDS011;35715;51.570;6.036;2023-11-18T07:31:01;28.05;;;17.67;;
49826;SDS011;35715;51.570;6.036;2023-11-18T07:33:29;30.70;;;17.73;;
49826;SDS011;35715;51.570;6.036;2023-11-18T07:35:58;22.38;;;16.08;;
49826;SDS011;35715;51.570;6.036;2023-11-18T07:38:24;33.45;;;18.95;;
49826;SDS011;35715;51.570;6.036;2023-11-18T07:40:51;44.45;;;21.15;;
49826;SDS011;35715;51.570;6.036;2023-11-18T07:43:21;29.80;;;17.75;;
49826;SDS011;35715;51.570;6.036;2023-11-18T07:45:47;28.17;;;18.42;;
49826;SDS011;35715;51.570;6.036;2023-11-18T07:48:18;33.10;;;19.73;;
49826;SDS011;35715;51.570;6.036;2023-11-18T07:50:45;25.95;;;16.55;;
49826;SDS011;35715;51.570;6.036;2023-11-18T07:53:12;37.22;;;19.63;;
49826;SDS011;35715;51.570;6.036;2023-11-18T07:55:38;27.63;;;17.13;;
49826;SDS011;35715;51.570;6.036;2023-11-18T07:58:07;29.20;;;17.85;;
49826;SDS011;35715;51.570;6.036;2023-11-18T08:00:39;31.35;;;18.40;;
49826;SDS011;35715;51.570;6.036;2023-11-18T08:03:06;32.63;;;19.10;;
49826;SDS011;35715;51.570;6.036;2023-11-18T08:05:36;29.65;;;17.15;;
49826;SDS011;35715;51.570;6.036;2023-11-18T08:08:01;29.63;;;16.67;;
49826;SDS011;35715;51.570;6.036;2023-11-18T08:10:27;29.65;;;17.98;;
49826;SDS011;35715;51.570;6.036;2023-11-18T08:12:53;27.45;;;18.42;;
49826;SDS011;35715;51.570;6.036;2023-11-18T08:15:22;26.00;;;16.98;;
49826;SDS011;35715;51.570;6.036;2023-11-18T08:17:47;26.10;;;16.58;;
49826;SDS011;35715;51.570;6.036;2023-11-18T08:20:14;27.00;;;17.58;;
49826;SDS011;35715;51.570;6.036;2023-11-18T08:22:42;28.10;;;16.23;;
49826;SDS011;35715;51.570;6.036;2023-11-18T08:25:11;29.13;;;17.42;;
49826;SDS011;35715;51.570;6.036;2023-11-18T08:27:38;32.97;;;17.88;;
49826;SDS011;35715;51.570;6.036;2023-11-18T08:30:05;32.75;;;17.02;;
49826;SDS011;35715;51.570;6.036;2023-11-18T08:32:36;26.20;;;17.73;;
49826;SDS011;35715;51.570;6.036;2023-11-18T08:35:05;34.95;;;17.23;;
49826;SDS011;35715;51.570;6.036;2023-11-18T08:37:35;32.75;;;16.27;;
49826;SDS011;35715;51.570;6.036;2023-11-18T08:40:02;34.03;;;16.58;;
49826;SDS011;35715;51.570;6.036;2023-11-18T08:42:28;27.30;;;17.15;;
49826;SDS011;35715;51.570;6.036;2023-11-18T08:44:54;25.58;;;16.20;;
49826;SDS011;35715;51.570;6.036;2023-11-18T08:47:20;33.78;;;18.00;;
49826;SDS011;35715;51.570;6.036;2023-11-18T08:49:46;25.42;;;15.40;;
49826;SDS011;35715;51.570;6.036;2023-11-18T08:52:11;26.85;;;17.08;;
49826;SDS011;35715;51.570;6.036;2023-11-18T08:54:38;23.00;;;15.73;;
49826;SDS011;35715;51.570;6.036;2023-11-18T08:57:26;26.70;;;15.13;;
49826;SDS011;35715;51.570;6.036;2023-11-18T08:59:51;27.73;;;13.43;;
49826;SDS011;35715;51.570;6.036;2023-11-18T09:02:17;21.73;;;14.82;;
49826;SDS011;35715;51.570;6.036;2023-11-18T09:04:48;27.67;;;15.52;;
49826;SDS011;35715;51.570;6.036;2023-11-18T09:07:14;22.48;;;14.77;;
49826;SDS011;35715;51.570;6.036;2023-11-18T09:09:40;25.52;;;15.52;;
49826;SDS011;35715;51.570;6.036;2023-11-18T09:12:05;25.08;;;15.43;;
49826;SDS011;35715;51.570;6.036;2023-11-18T09:14:33;27.75;;;16.40;;
49826;SDS011;35715;51.570;6.036;2023-11-18T09:16:58;24.67;;;13.30;;
49826;SDS011;35715;51.570;6.036;2023-11-18T09:19:24;23.55;;;13.85;;
49826;SDS011;35715;51.570;6.036;2023-11-18T09:21:50;22.38;;;14.55;;
49826;SDS011;35715;51.570;6.036;2023-11-18T09:24:17;26.33;;;17.85;;
49826;SDS011;35715;51.570;6.036;2023-11-18T09:26:45;27.45;;;15.15;;
49826;SDS011;35715;51.570;6.036;2023-11-18T09:29:15;31.90;;;14.57;;
49826;SDS011;35715;51.570;6.036;2023-11-18T09:31:47;18.38;;;13.10;;
49826;SDS011;35715;51.570;6.036;2023-11-18T09:34:17;27.48;;;14.65;;
49826;SDS011;35715;51.570;6.036;2023-11-18T09:36:43;26.92;;;16.05;;
49826;SDS011;35715;51.570;6.036;2023-11-18T09:39:09;25.10;;;13.75;;
49826;SDS011;35715;51.570;6.036;2023-11-18T09:41:53;32.80;;;13.55;;
49826;SDS011;35715;51.570;6.036;2023-11-18T09:44:21;21.85;;;13.38;;
49826;SDS011;35715;51.570;6.036;2023-11-18T09:46:48;22.48;;;12.45;;
49826;SDS011;35715;51.570;6.036;2023-11-18T09:49:26;18.63;;;12.65;;
49826;SDS011;35715;51.570;6.036;2023-11-18T09:51:58;23.83;;;12.32;;
49826;SDS011;35715;51.570;6.036;2023-11-18T09:57:25;23.73;;;14.57;;
49826;SDS011;35715;51.570;6.036;2023-11-18T10:00:03;19.98;;;12.73;;
49826;SDS011;35715;51.570;6.036;2023-11-18T10:02:50;17.48;;;11.95;;
49826;SDS011;35715;51.570;6.036;2023-11-18T10:05:17;20.05;;;11.85;;
49826;SDS011;35715;51.570;6.036;2023-11-18T10:07:47;20.02;;;12.38;;
49826;SDS011;35715;51.570;6.036;2023-11-18T10:10:12;19.83;;;11.55;;
49826;SDS011;35715;51.570;6.036;2023-11-18T10:12:43;15.60;;;11.35;;
49826;SDS011;35715;51.570;6.036;2023-11-18T10:15:11;21.83;;;12.80;;
49826;SDS011;35715;51.570;6.036;2023-11-18T10:17:41;22.92;;;11.85;;
49826;SDS011;35715;51.570;6.036;2023-11-18T10:20:22;14.98;;;9.77;;
49826;SDS011;35715;51.570;6.036;2023-11-18T10:23:27;18.45;;;10.95;;
49826;SDS011;35715;51.570;6.036;2023-11-18T10:25:56;20.50;;;9.32;;
49826;SDS011;35715;51.570;6.036;2023-11-18T10:28:26;16.90;;;10.65;;
49826;SDS011;35715;51.570;6.036;2023-11-18T10:31:06;17.50;;;11.75;;
49826;SDS011;35715;51.570;6.036;2023-11-18T10:33:36;18.63;;;11.65;;
49826;SDS011;35715;51.570;6.036;2023-11-18T10:36:03;16.67;;;11.07;;
49826;SDS011;35715;51.570;6.036;2023-11-18T10:38:30;18.88;;;10.80;;
49826;SDS011;35715;51.570;6.036;2023-11-18T10:40:57;23.63;;;11.88;;
49826;SDS011;35715;51.570;6.036;2023-11-18T10:43:24;22.45;;;11.50;;
49826;SDS011;35715;51.570;6.036;2023-11-18T10:45:54;19.35;;;10.82;;
49826;SDS011;35715;51.570;6.036;2023-11-18T10:48:30;20.88;;;10.57;;
49826;SDS011;35715;51.570;6.036;2023-11-18T10:50:55;12.63;;;9.73;;
49826;SDS011;35715;51.570;6.036;2023-11-18T10:53:24;19.88;;;9.60;;
49826;SDS011;35715;51.570;6.036;2023-11-18T10:55:51;13.93;;;9.82;;
49826;SDS011;35715;51.570;6.036;2023-11-18T10:58:17;12.57;;;7.65;;
49826;SDS011;35715;51.570;6.036;2023-11-18T11:00:46;15.90;;;7.40;;
49826;SDS011;35715;51.570;6.036;2023-11-18T11:03:13;12.48;;;8.10;;
49826;SDS011;35715;51.570;6.036;2023-11-18T11:05:39;16.65;;;8.18;;
49826;SDS011;35715;51.570;6.036;2023-11-18T11:08:07;17.38;;;7.70;;
49826;SDS011;35715;51.570;6.036;2023-11-18T11:10:33;11.20;;;5.82;;
49826;SDS011;35715;51.570;6.036;2023-11-18T11:13:01;15.85;;;6.72;;
49826;SDS011;35715;51.570;6.036;2023-11-18T11:15:30;14.10;;;6.13;;
49826;SDS011;35715;51.570;6.036;2023-11-18T11:18:07;10.98;;;6.90;;
49826;SDS011;35715;51.570;6.036;2023-11-18T11:23:38;16.85;;;6.97;;
49826;SDS011;35715;51.570;6.036;2023-11-18T11:26:34;7.88;;;6.63;;
49826;SDS011;35715;51.570;6.036;2023-11-18T11:29:23;9.85;;;5.90;;
49826;SDS011;35715;51.570;6.036;2023-11-18T11:34:48;14.80;;;7.45;;
49826;SDS011;35715;51.570;6.036;2023-11-18T11:37:18;7.30;;;4.80;;
49826;SDS011;35715;51.570;6.036;2023-11-18T11:39:44;12.43;;;6.25;;
49826;SDS011;35715;51.570;6.036;2023-11-18T11:42:11;11.27;;;5.70;;
49826;SDS011;35715;51.570;6.036;2023-11-18T11:44:42;9.90;;;4.82;;
49826;SDS011;35715;51.570;6.036;2023-11-18T11:47:09;14.05;;;4.90;;
49826;SDS011;35715;51.570;6.036;2023-11-18T11:49:58;8.75;;;4.07;;
49826;SDS011;35715;51.570;6.036;2023-11-18T11:52:35;10.35;;;5.18;;
49826;SDS011;35715;51.570;6.036;2023-11-18T11:55:12;10.85;;;5.90;;
49826;SDS011;35715;51.570;6.036;2023-11-18T11:57:51;19.40;;;7.95;;
49826;SDS011;35715;51.570;6.036;2023-11-18T12:00:23;10.23;;;5.18;;
49826;SDS011;35715;51.570;6.036;2023-11-18T12:02:51;21.23;;;7.90;;
49826;SDS011;35715;51.570;6.036;2023-11-18T12:05:23;11.05;;;5.95;;
49826;SDS011;35715;51.570;6.036;2023-11-18T12:07:54;9.63;;;5.53;;
49826;SDS011;35715;51.570;6.036;2023-11-18T12:10:22;10.40;;;4.30;;
49826;SDS011;35715;51.570;6.036;2023-11-18T12:13:06;8.73;;;5.20;;
49826;SDS011;35715;51.570;6.036;2023-11-18T12:15:53;14.95;;;5.93;;
49826;SDS011;35715;51.570;6.036;2023-11-18T12:18:21;19.65;;;5.03;;
49826;SDS011;35715;51.570;6.036;2023-11-18T12:20:47;12.82;;;6.03;;
49826;SDS011;35715;51.570;6.036;2023-11-18T12:23:13;16.08;;;5.72;;
49826;SDS011;35715;51.570;6.036;2023-11-18T12:25:39;11.43;;;5.60;;
49826;SDS011;35715;51.570;6.036;2023-11-18T12:28:09;8.55;;;5.15;;
49826;SDS011;35715;51.570;6.036;2023-11-18T12:30:39;14.60;;;5.85;;
49826;SDS011;35715;51.570;6.036;2023-11-18T12:33:16;15.48;;;4.90;;
49826;SDS011;35715;51.570;6.036;2023-11-18T12:38:40;12.07;;;4.43;;
49826;SDS011;35715;51.570;6.036;2023-11-18T12:41:37;16.90;;;5.13;;
49826;SDS011;35715;51.570;6.036;2023-11-18T12:46:49;9.40;;;4.15;;
49826;SDS011;35715;51.570;6.036;2023-11-18T12:49:22;7.85;;;4.22;;
49826;SDS011;35715;51.570;6.036;2023-11-18T12:51:54;9.98;;;4.20;;
49826;SDS011;35715;51.570;6.036;2023-11-18T12:54:21;10.55;;;3.55;;
49826;SDS011;35715;51.570;6.036;2023-11-18T12:56:50;4.97;;;3.88;;
49826;SDS011;35715;51.570;6.036;2023-11-18T12:59:18;11.18;;;4.35;;
49826;SDS011;35715;51.570;6.036;2023-11-18T13:01:48;8.88;;;3.72;;
49826;SDS011;35715;51.570;6.036;2023-11-18T13:04:18;5.78;;;4.40;;
49826;SDS011;35715;51.570;6.036;2023-11-18T13:06:47;5.30;;;2.97;;
49826;SDS011;35715;51.570;6.036;2023-11-18T13:09:14;7.63;;;2.85;;
49826;SDS011;35715;51.570;6.036;2023-11-18T13:11:50;4.00;;;2.33;;
49826;SDS011;35715;51.570;6.036;2023-11-18T13:14:21;7.57;;;2.70;;
49826;SDS011;35715;51.570;6.036;2023-11-18T13:16:50;9.15;;;3.63;;
49826;SDS011;35715;51.570;6.036;2023-11-18T13:19:24;6.63;;;3.22;;
49826;SDS011;35715;51.570;6.036;2023-11-18T13:21:59;3.40;;;2.35;;
49826;SDS011;35715;51.570;6.036;2023-11-18T13:24:28;4.05;;;2.25;;
49826;SDS011;35715;51.570;6.036;2023-11-18T13:26:57;12.85;;;3.30;;
49826;SDS011;35715;51.570;6.036;2023-11-18T13:29:23;4.45;;;1.92;;
49826;SDS011;35715;51.570;6.036;2023-11-18T13:31:52;2.90;;;1.58;;
49826;SDS011;35715;51.570;6.036;2023-11-18T13:34:18;4.63;;;2.00;;
49826;SDS011;35715;51.570;6.036;2023-11-18T13:36:44;4.63;;;1.98;;
49826;SDS011;35715;51.570;6.036;2023-11-18T13:39:19;6.85;;;1.75;;
49826;SDS011;35715;51.570;6.036;2023-11-18T13:41:49;4.38;;;2.00;;
49826;SDS011;35715;51.570;6.036;2023-11-18T13:44:34;5.97;;;2.03;;
49826;SDS011;35715;51.570;6.036;2023-11-18T13:47:00;6.70;;;2.53;;
49826;SDS011;35715;51.570;6.036;2023-11-18T13:49:36;7.10;;;1.98;;
49826;SDS011;35715;51.570;6.036;2023-11-18T13:52:05;2.95;;;1.42;;
49826;SDS011;35715;51.570;6.036;2023-11-18T13:54:34;3.58;;;1.70;;
49826;SDS011;35715;51.570;6.036;2023-11-18T13:57:01;8.88;;;1.98;;
49826;SDS011;35715;51.570;6.036;2023-11-18T13:59:30;5.13;;;2.45;;
49826;SDS011;35715;51.570;6.036;2023-11-18T14:01:57;3.53;;;1.63;;
49826;SDS011;35715;51.570;6.036;2023-11-18T14:04:23;2.90;;;1.85;;
49826;SDS011;35715;51.570;6.036;2023-11-18T14:06:52;4.90;;;1.73;;
49826;SDS011;35715;51.570;6.036;2023-11-18T14:09:21;3.83;;;2.10;;
49826;SDS011;35715;51.570;6.036;2023-11-18T14:11:47;3.13;;;1.65;;
49826;SDS011;35715;51.570;6.036;2023-11-18T14:14:13;5.32;;;2.33;;
49826;SDS011;35715;51.570;6.036;2023-11-18T14:16:39;3.33;;;2.38;;
49826;SDS011;35715;51.570;6.036;2023-11-18T14:19:05;6.20;;;2.03;;
49826;SDS011;35715;51.570;6.036;2023-11-18T14:21:31;9.20;;;2.67;;
49826;SDS011;35715;51.570;6.036;2023-11-18T14:23:57;4.13;;;2.22;;
49826;SDS011;35715;51.570;6.036;2023-11-18T14:26:27;6.20;;;2.22;;
49826;SDS011;35715;51.570;6.036;2023-11-18T14:28:52;2.50;;;2.22;;
49826;SDS011;35715;51.570;6.036;2023-11-18T14:31:17;4.15;;;2.05;;
49826;SDS011;35715;51.570;6.036;2023-11-18T14:33:43;5.97;;;2.83;;
49826;SDS011;35715;51.570;6.036;2023-11-18T14:36:09;1.90;;;1.80;;
49826;SDS011;35715;51.570;6.036;2023-11-18T14:38:34;3.55;;;2.65;;
49826;SDS011;35715;51.570;6.036;2023-11-18T14:41:00;3.55;;;2.47;;
49826;SDS011;35715;51.570;6.036;2023-11-18T14:43:25;3.83;;;2.63;;
49826;SDS011;35715;51.570;6.036;2023-11-18T14:45:50;5.50;;;2.95;;
49826;SDS011;35715;51.570;6.036;2023-11-18T14:48:16;9.02;;;2.80;;